sensor_id;sensor_type;location;lat;lon;timestamp;P1;durP1;ratioP1;P2;durP2;ratioP2
20232;SDS011;37438;55.674;13.074;2023-12-20T00:02:27;19.15;;;4.05;;
20232;SDS011;37438;55.674;13.074;2023-12-20T00:05:31;23.40;;;4.38;;
20232;SDS011;37438;55.674;13.074;2023-12-20T00:08:37;28.77;;;4.03;;
20232;SDS011;37438;55.674;13.074;2023-12-20T00:11:41;23.13;;;4.47;;
20232;SDS011;37438;55.674;13.074;2023-12-20T00:17:51;25.45;;;3.47;;
20232;SDS011;37438;55.674;13.074;2023-12-20T00:20:56;24.20;;;3.10;;
20232;SDS011;37438;55.674;13.074;2023-12-20T00:24:04;18.45;;;4.15;;
20232;SDS011;37438;55.674;13.074;2023-12-20T00:27:08;16.15;;;4.15;;
20232;SDS011;37438;55.674;13.074;2023-12-20T00:30:13;20.23;;;3.78;;
20232;SDS011;37438;55.674;13.074;2023-12-20T00:33:18;16.38;;;2.80;;
20232;SDS011;37438;55.674;13.074;2023-12-20T00:36:23;22.50;;;4.22;;
20232;SDS011;37438;55.674;13.074;2023-12-20T00:39:28;33.92;;;3.83;;
20232;SDS011;37438;55.674;13.074;2023-12-20T00:42:33;17.55;;;2.97;;
20232;SDS011;37438;55.674;13.074;2023-12-20T00:45:37;30.52;;;4.03;;
20232;SDS011;37438;55.674;13.074;2023-12-20T00:48:43;20.80;;;2.72;;
20232;SDS011;37438;55.674;13.074;2023-12-20T00:51:49;21.65;;;3.28;;
20232;SDS011;37438;55.674;13.074;2023-12-20T00:54:56;17.20;;;2.55;;
20232;SDS011;37438;55.674;13.074;2023-12-20T00:58:01;18.33;;;3.30;;
20232;SDS011;37438;55.674;13.074;2023-12-20T01:04:14;13.63;;;2.83;;
20232;SDS011;37438;55.674;13.074;2023-12-20T01:10:27;20.08;;;3.42;;
20232;SDS011;37438;55.674;13.074;2023-12-20T01:13:33;22.15;;;3.33;;
20232;SDS011;37438;55.674;13.074;2023-12-20T01:16:38;18.77;;;3.67;;
20232;SDS011;37438;55.674;13.074;2023-12-20T01:19:42;16.17;;;3.03;;
20232;SDS011;37438;55.674;13.074;2023-12-20T01:22:48;12.07;;;2.90;;
20232;SDS011;37438;55.674;13.074;2023-12-20T01:25:53;17.98;;;4.18;;
20232;SDS011;37438;55.674;13.074;2023-12-20T01:28:58;18.95;;;3.25;;
20232;SDS011;37438;55.674;13.074;2023-12-20T01:32:03;17.63;;;2.85;;
20232;SDS011;37438;55.674;13.074;2023-12-20T01:35:09;27.73;;;4.07;;
20232;SDS011;37438;55.674;13.074;2023-12-20T01:38:16;21.88;;;2.80;;
20232;SDS011;37438;55.674;13.074;2023-12-20T01:41:22;17.90;;;3.03;;
20232;SDS011;37438;55.674;13.074;2023-12-20T01:44:27;12.27;;;1.80;;
20232;SDS011;37438;55.674;13.074;2023-12-20T01:47:32;12.52;;;1.95;;
20232;SDS011;37438;55.674;13.074;2023-12-20T01:50:37;20.65;;;2.13;;
20232;SDS011;37438;55.674;13.074;2023-12-20T01:53:42;15.88;;;3.05;;
20232;SDS011;37438;55.674;13.074;2023-12-20T01:56:48;17.05;;;2.33;;
20232;SDS011;37438;55.674;13.074;2023-12-20T01:59:54;12.75;;;2.25;;
20232;SDS011;37438;55.674;13.074;2023-12-20T02:03:02;27.77;;;4.60;;
20232;SDS011;37438;55.674;13.074;2023-12-20T02:06:08;25.90;;;2.60;;
20232;SDS011;37438;55.674;13.074;2023-12-20T02:09:15;16.95;;;2.78;;
20232;SDS011;37438;55.674;13.074;2023-12-20T02:12:21;16.08;;;3.17;;
20232;SDS011;37438;55.674;13.074;2023-12-20T02:15:26;20.17;;;3.20;;
20232;SDS011;37438;55.674;13.074;2023-12-20T02:18:31;21.60;;;3.13;;
20232;SDS011;37438;55.674;13.074;2023-12-20T02:24:42;19.60;;;3.05;;
20232;SDS011;37438;55.674;13.074;2023-12-20T02:27:47;24.38;;;2.58;;
20232;SDS011;37438;55.674;13.074;2023-12-20T02:30:52;23.33;;;2.88;;
20232;SDS011;37438;55.674;13.074;2023-12-20T02:33:57;19.63;;;2.78;;
20232;SDS011;37438;55.674;13.074;2023-12-20T02:37:02;21.30;;;3.95;;
20232;SDS011;37438;55.674;13.074;2023-12-20T02:40:07;18.73;;;3.55;;
20232;SDS011;37438;55.674;13.074;2023-12-20T02:43:12;19.20;;;2.90;;
20232;SDS011;37438;55.674;13.074;2023-12-20T02:46:17;23.85;;;4.00;;
20232;SDS011;37438;55.674;13.074;2023-12-20T02:49:22;23.30;;;2.33;;
20232;SDS011;37438;55.674;13.074;2023-12-20T02:52:28;23.17;;;3.35;;
20232;SDS011;37438;55.674;13.074;2023-12-20T02:55:33;17.05;;;3.03;;
20232;SDS011;37438;55.674;13.074;2023-12-20T02:58:42;18.33;;;2.97;;
20232;SDS011;37438;55.674;13.074;2023-12-20T03:01:47;26.65;;;2.40;;
20232;SDS011;37438;55.674;13.074;2023-12-20T03:04:54;22.23;;;3.22;;
20232;SDS011;37438;55.674;13.074;2023-12-20T03:07:59;18.67;;;2.17;;
20232;SDS011;37438;55.674;13.074;2023-12-20T03:11:04;24.45;;;3.00;;
20232;SDS011;37438;55.674;13.074;2023-12-20T03:14:09;19.13;;;3.35;;
20232;SDS011;37438;55.674;13.074;2023-12-20T03:17:14;21.17;;;2.70;;
20232;SDS011;37438;55.674;13.074;2023-12-20T03:20:20;25.63;;;4.70;;
20232;SDS011;37438;55.674;13.074;2023-12-20T03:23:25;14.90;;;2.33;;
20232;SDS011;37438;55.674;13.074;2023-12-20T03:26:30;21.05;;;3.33;;
20232;SDS011;37438;55.674;13.074;2023-12-20T03:29:35;21.75;;;3.85;;
20232;SDS011;37438;55.674;13.074;2023-12-20T03:32:42;23.27;;;2.55;;
20232;SDS011;37438;55.674;13.074;2023-12-20T03:38:51;25.08;;;2.58;;
20232;SDS011;37438;55.674;13.074;2023-12-20T03:41:56;27.17;;;3.47;;
20232;SDS011;37438;55.674;13.074;2023-12-20T03:45:01;17.75;;;3.08;;
20232;SDS011;37438;55.674;13.074;2023-12-20T03:48:06;20.17;;;3.97;;
20232;SDS011;37438;55.674;13.074;2023-12-20T03:51:11;25.20;;;2.13;;
20232;SDS011;37438;55.674;13.074;2023-12-20T03:57:21;19.25;;;3.58;;
20232;SDS011;37438;55.674;13.074;2023-12-20T04:00:26;15.60;;;2.15;;
20232;SDS011;37438;55.674;13.074;2023-12-20T04:03:31;17.38;;;4.05;;
20232;SDS011;37438;55.674;13.074;2023-12-20T04:06:35;24.05;;;3.15;;
20232;SDS011;37438;55.674;13.074;2023-12-20T04:09:41;15.25;;;2.45;;
20232;SDS011;37438;55.674;13.074;2023-12-20T04:15:51;30.27;;;3.55;;
20232;SDS011;37438;55.674;13.074;2023-12-20T04:18:57;23.58;;;3.53;;
20232;SDS011;37438;55.674;13.074;2023-12-20T04:22:03;20.15;;;2.53;;
20232;SDS011;37438;55.674;13.074;2023-12-20T04:25:07;21.95;;;2.70;;
20232;SDS011;37438;55.674;13.074;2023-12-20T04:28:14;25.95;;;3.50;;
20232;SDS011;37438;55.674;13.074;2023-12-20T04:31:19;17.63;;;2.60;;
20232;SDS011;37438;55.674;13.074;2023-12-20T04:37:30;26.63;;;4.40;;
20232;SDS011;37438;55.674;13.074;2023-12-20T04:43:39;18.52;;;2.72;;
20232;SDS011;37438;55.674;13.074;2023-12-20T04:46:44;30.65;;;4.22;;
20232;SDS011;37438;55.674;13.074;2023-12-20T04:49:49;21.70;;;3.90;;
20232;SDS011;37438;55.674;13.074;2023-12-20T04:56:01;28.38;;;4.55;;
20232;SDS011;37438;55.674;13.074;2023-12-20T04:59:07;24.80;;;3.40;;
20232;SDS011;37438;55.674;13.074;2023-12-20T05:02:13;26.10;;;3.75;;
20232;SDS011;37438;55.674;13.074;2023-12-20T05:05:18;28.15;;;3.85;;
20232;SDS011;37438;55.674;13.074;2023-12-20T05:08:22;20.08;;;3.22;;
20232;SDS011;37438;55.674;13.074;2023-12-20T05:11:28;26.15;;;4.72;;
20232;SDS011;37438;55.674;13.074;2023-12-20T05:17:37;28.30;;;5.40;;
20232;SDS011;37438;55.674;13.074;2023-12-20T05:20:42;26.67;;;4.35;;
20232;SDS011;37438;55.674;13.074;2023-12-20T05:23:47;26.63;;;4.32;;
20232;SDS011;37438;55.674;13.074;2023-12-20T05:26:52;34.55;;;3.83;;
20232;SDS011;37438;55.674;13.074;2023-12-20T05:29:57;24.63;;;3.95;;
20232;SDS011;37438;55.674;13.074;2023-12-20T05:33:02;26.15;;;4.65;;
20232;SDS011;37438;55.674;13.074;2023-12-20T05:36:07;24.42;;;3.63;;
20232;SDS011;37438;55.674;13.074;2023-12-20T05:39:15;25.50;;;4.95;;
20232;SDS011;37438;55.674;13.074;2023-12-20T05:42:20;24.85;;;4.13;;
20232;SDS011;37438;55.674;13.074;2023-12-20T05:45:25;27.17;;;3.67;;
20232;SDS011;37438;55.674;13.074;2023-12-20T05:48:29;24.73;;;4.82;;
20232;SDS011;37438;55.674;13.074;2023-12-20T05:51:34;26.55;;;4.25;;
20232;SDS011;37438;55.674;13.074;2023-12-20T05:54:38;24.42;;;3.30;;
20232;SDS011;37438;55.674;13.074;2023-12-20T05:57:44;26.33;;;4.45;;
20232;SDS011;37438;55.674;13.074;2023-12-20T06:00:49;27.33;;;4.20;;
20232;SDS011;37438;55.674;13.074;2023-12-20T06:03:54;26.52;;;4.80;;
20232;SDS011;37438;55.674;13.074;2023-12-20T06:07:00;35.10;;;4.38;;
20232;SDS011;37438;55.674;13.074;2023-12-20T06:10:05;28.92;;;4.65;;
20232;SDS011;37438;55.674;13.074;2023-12-20T06:13:10;22.15;;;3.45;;
20232;SDS011;37438;55.674;13.074;2023-12-20T06:16:17;17.27;;;3.20;;
20232;SDS011;37438;55.674;13.074;2023-12-20T06:19:23;30.40;;;4.22;;
20232;SDS011;37438;55.674;13.074;2023-12-20T06:22:27;17.45;;;2.53;;
20232;SDS011;37438;55.674;13.074;2023-12-20T06:25:32;19.25;;;2.13;;
20232;SDS011;37438;55.674;13.074;2023-12-20T06:28:37;20.75;;;3.35;;
20232;SDS011;37438;55.674;13.074;2023-12-20T06:31:45;15.45;;;3.08;;
20232;SDS011;37438;55.674;13.074;2023-12-20T06:34:50;13.00;;;2.35;;
20232;SDS011;37438;55.674;13.074;2023-12-20T06:37:56;16.55;;;4.10;;
20232;SDS011;37438;55.674;13.074;2023-12-20T06:41:01;23.08;;;2.80;;
20232;SDS011;37438;55.674;13.074;2023-12-20T06:44:06;16.20;;;3.33;;
20232;SDS011;37438;55.674;13.074;2023-12-20T06:47:11;15.52;;;2.55;;
20232;SDS011;37438;55.674;13.074;2023-12-20T06:50:18;15.52;;;2.10;;
20232;SDS011;37438;55.674;13.074;2023-12-20T06:53:23;16.45;;;3.38;;
20232;SDS011;37438;55.674;13.074;2023-12-20T06:59:32;21.13;;;2.60;;
20232;SDS011;37438;55.674;13.074;2023-12-20T07:02:37;17.38;;;2.13;;
20232;SDS011;37438;55.674;13.074;2023-12-20T07:05:43;17.15;;;1.95;;
20232;SDS011;37438;55.674;13.074;2023-12-20T07:08:48;18.23;;;2.38;;
20232;SDS011;37438;55.674;13.074;2023-12-20T07:11:53;15.43;;;1.58;;
20232;SDS011;37438;55.674;13.074;2023-12-20T07:14:58;13.70;;;1.73;;
20232;SDS011;37438;55.674;13.074;2023-12-20T07:18:03;7.82;;;1.10;;
20232;SDS011;37438;55.674;13.074;2023-12-20T07:21:09;16.83;;;2.30;;
20232;SDS011;37438;55.674;13.074;2023-12-20T07:24:14;9.52;;;1.95;;
20232;SDS011;37438;55.674;13.074;2023-12-20T07:27:21;6.80;;;0.95;;
20232;SDS011;37438;55.674;13.074;2023-12-20T07:30:26;7.68;;;1.02;;
20232;SDS011;37438;55.674;13.074;2023-12-20T07:33:32;10.00;;;1.67;;
20232;SDS011;37438;55.674;13.074;2023-12-20T07:36:43;10.88;;;1.50;;
20232;SDS011;37438;55.674;13.074;2023-12-20T07:42:53;7.87;;;1.77;;
20232;SDS011;37438;55.674;13.074;2023-12-20T07:49:03;8.75;;;1.15;;
20232;SDS011;37438;55.674;13.074;2023-12-20T07:52:08;6.93;;;1.17;;
20232;SDS011;37438;55.674;13.074;2023-12-20T07:55:14;11.23;;;1.52;;
20232;SDS011;37438;55.674;13.074;2023-12-20T07:58:20;12.80;;;2.60;;
20232;SDS011;37438;55.674;13.074;2023-12-20T08:01:34;18.23;;;2.00;;
20232;SDS011;37438;55.674;13.074;2023-12-20T08:04:40;9.00;;;1.45;;
20232;SDS011;37438;55.674;13.074;2023-12-20T08:07:45;7.15;;;2.80;;
20232;SDS011;37438;55.674;13.074;2023-12-20T08:10:50;9.70;;;1.48;;
20232;SDS011;37438;55.674;13.074;2023-12-20T08:17:00;9.60;;;1.95;;
20232;SDS011;37438;55.674;13.074;2023-12-20T08:20:06;4.28;;;0.63;;
20232;SDS011;37438;55.674;13.074;2023-12-20T08:23:12;8.30;;;1.25;;
20232;SDS011;37438;55.674;13.074;2023-12-20T08:26:18;3.60;;;1.20;;
20232;SDS011;37438;55.674;13.074;2023-12-20T08:29:24;3.25;;;0.40;;
20232;SDS011;37438;55.674;13.074;2023-12-20T08:32:28;13.73;;;1.55;;
20232;SDS011;37438;55.674;13.074;2023-12-20T08:38:39;7.05;;;0.90;;
20232;SDS011;37438;55.674;13.074;2023-12-20T08:41:44;4.07;;;0.73;;
20232;SDS011;37438;55.674;13.074;2023-12-20T08:44:49;8.07;;;1.00;;
20232;SDS011;37438;55.674;13.074;2023-12-20T08:47:54;6.85;;;1.10;;
20232;SDS011;37438;55.674;13.074;2023-12-20T08:51:03;7.95;;;1.13;;
20232;SDS011;37438;55.674;13.074;2023-12-20T08:54:08;9.27;;;1.13;;
20232;SDS011;37438;55.674;13.074;2023-12-20T08:57:13;7.07;;;1.08;;
20232;SDS011;37438;55.674;13.074;2023-12-20T09:00:18;6.47;;;0.90;;
20232;SDS011;37438;55.674;13.074;2023-12-20T09:03:24;6.03;;;0.82;;
20232;SDS011;37438;55.674;13.074;2023-12-20T09:06:29;4.80;;;0.57;;
20232;SDS011;37438;55.674;13.074;2023-12-20T09:09:34;7.65;;;0.98;;
20232;SDS011;37438;55.674;13.074;2023-12-20T09:12:39;6.32;;;0.75;;
20232;SDS011;37438;55.674;13.074;2023-12-20T09:15:46;13.27;;;1.15;;
20232;SDS011;37438;55.674;13.074;2023-12-20T09:18:51;16.42;;;2.15;;
20232;SDS011;37438;55.674;13.074;2023-12-20T09:21:55;10.70;;;0.80;;
20232;SDS011;37438;55.674;13.074;2023-12-20T09:25:00;4.95;;;1.45;;
20232;SDS011;37438;55.674;13.074;2023-12-20T09:28:08;12.43;;;1.33;;
20232;SDS011;37438;55.674;13.074;2023-12-20T09:34:18;7.85;;;1.73;;
20232;SDS011;37438;55.674;13.074;2023-12-20T09:37:27;8.48;;;1.48;;
20232;SDS011;37438;55.674;13.074;2023-12-20T09:40:33;16.58;;;1.70;;
20232;SDS011;37438;55.674;13.074;2023-12-20T09:43:39;11.10;;;2.25;;
20232;SDS011;37438;55.674;13.074;2023-12-20T09:46:45;8.55;;;1.25;;
20232;SDS011;37438;55.674;13.074;2023-12-20T09:49:51;17.63;;;2.30;;
20232;SDS011;37438;55.674;13.074;2023-12-20T09:59:06;8.32;;;1.50;;
20232;SDS011;37438;55.674;13.074;2023-12-20T10:02:12;9.43;;;1.17;;
20232;SDS011;37438;55.674;13.074;2023-12-20T10:05:19;15.55;;;1.92;;
20232;SDS011;37438;55.674;13.074;2023-12-20T10:08:27;10.23;;;1.27;;
20232;SDS011;37438;55.674;13.074;2023-12-20T10:11:37;13.38;;;1.95;;
20232;SDS011;37438;55.674;13.074;2023-12-20T10:14:42;14.13;;;1.98;;
20232;SDS011;37438;55.674;13.074;2023-12-20T10:17:48;5.88;;;1.23;;
20232;SDS011;37438;55.674;13.074;2023-12-20T10:20:54;11.88;;;2.38;;
20232;SDS011;37438;55.674;13.074;2023-12-20T10:24:00;16.48;;;2.78;;
20232;SDS011;37438;55.674;13.074;2023-12-20T10:27:05;15.45;;;1.95;;
20232;SDS011;37438;55.674;13.074;2023-12-20T10:30:10;14.27;;;3.72;;
20232;SDS011;37438;55.674;13.074;2023-12-20T10:36:21;8.35;;;1.48;;
20232;SDS011;37438;55.674;13.074;2023-12-20T10:39:31;18.23;;;2.53;;
20232;SDS011;37438;55.674;13.074;2023-12-20T10:42:36;20.55;;;3.25;;
20232;SDS011;37438;55.674;13.074;2023-12-20T10:45:42;20.45;;;3.45;;
20232;SDS011;37438;55.674;13.074;2023-12-20T10:48:50;14.60;;;2.13;;
20232;SDS011;37438;55.674;13.074;2023-12-20T10:51:56;27.67;;;4.57;;
20232;SDS011;37438;55.674;13.074;2023-12-20T10:55:01;24.92;;;3.05;;
20232;SDS011;37438;55.674;13.074;2023-12-20T10:58:06;25.17;;;4.05;;
20232;SDS011;37438;55.674;13.074;2023-12-20T11:01:13;13.30;;;2.42;;
20232;SDS011;37438;55.674;13.074;2023-12-20T11:04:20;23.08;;;3.10;;
20232;SDS011;37438;55.674;13.074;2023-12-20T11:07:35;20.55;;;3.13;;
20232;SDS011;37438;55.674;13.074;2023-12-20T11:10:49;25.17;;;3.40;;
20232;SDS011;37438;55.674;13.074;2023-12-20T11:14:00;18.80;;;2.53;;
20232;SDS011;37438;55.674;13.074;2023-12-20T11:17:07;13.25;;;1.65;;
20232;SDS011;37438;55.674;13.074;2023-12-20T11:20:12;14.68;;;1.55;;
20232;SDS011;37438;55.674;13.074;2023-12-20T11:26:22;19.40;;;2.88;;
20232;SDS011;37438;55.674;13.074;2023-12-20T11:29:31;12.93;;;2.45;;
20232;SDS011;37438;55.674;13.074;2023-12-20T11:32:37;18.40;;;2.97;;
20232;SDS011;37438;55.674;13.074;2023-12-20T11:35:42;16.45;;;2.10;;
20232;SDS011;37438;55.674;13.074;2023-12-20T11:38:54;19.95;;;2.10;;
20232;SDS011;37438;55.674;13.074;2023-12-20T11:42:05;18.38;;;3.28;;
20232;SDS011;37438;55.674;13.074;2023-12-20T11:45:19;12.45;;;2.03;;
20232;SDS011;37438;55.674;13.074;2023-12-20T11:48:26;10.00;;;1.63;;
20232;SDS011;37438;55.674;13.074;2023-12-20T11:51:30;12.23;;;2.13;;
20232;SDS011;37438;55.674;13.074;2023-12-20T11:54:35;10.90;;;1.95;;
20232;SDS011;37438;55.674;13.074;2023-12-20T11:57:41;9.98;;;1.55;;
20232;SDS011;37438;55.674;13.074;2023-12-20T12:00:48;3.33;;;0.50;;
20232;SDS011;37438;55.674;13.074;2023-12-20T12:04:03;6.85;;;0.90;;
20232;SDS011;37438;55.674;13.074;2023-12-20T12:07:08;4.47;;;0.90;;
20232;SDS011;37438;55.674;13.074;2023-12-20T12:10:12;4.97;;;0.75;;
20232;SDS011;37438;55.674;13.074;2023-12-20T12:13:17;9.43;;;1.27;;
20232;SDS011;37438;55.674;13.074;2023-12-20T12:16:22;7.05;;;0.80;;
20232;SDS011;37438;55.674;13.074;2023-12-20T12:19:27;6.70;;;1.67;;
20232;SDS011;37438;55.674;13.074;2023-12-20T12:22:33;14.95;;;2.13;;
20232;SDS011;37438;55.674;13.074;2023-12-20T12:25:37;6.43;;;0.88;;
20232;SDS011;37438;55.674;13.074;2023-12-20T12:28:46;4.78;;;1.27;;
20232;SDS011;37438;55.674;13.074;2023-12-20T12:31:51;8.43;;;1.50;;
20232;SDS011;37438;55.674;13.074;2023-12-20T12:34:55;8.43;;;1.45;;
20232;SDS011;37438;55.674;13.074;2023-12-20T12:38:01;14.07;;;1.35;;
20232;SDS011;37438;55.674;13.074;2023-12-20T12:41:07;13.15;;;1.00;;
20232;SDS011;37438;55.674;13.074;2023-12-20T12:47:21;6.97;;;1.58;;
20232;SDS011;37438;55.674;13.074;2023-12-20T12:53:33;11.52;;;1.80;;
20232;SDS011;37438;55.674;13.074;2023-12-20T12:56:37;9.18;;;1.60;;
20232;SDS011;37438;55.674;13.074;2023-12-20T12:59:42;9.00;;;0.95;;
20232;SDS011;37438;55.674;13.074;2023-12-20T13:02:49;19.33;;;2.53;;
20232;SDS011;37438;55.674;13.074;2023-12-20T13:05:55;12.32;;;1.88;;
20232;SDS011;37438;55.674;13.074;2023-12-20T13:09:00;10.13;;;1.98;;
20232;SDS011;37438;55.674;13.074;2023-12-20T13:12:06;11.40;;;2.10;;
20232;SDS011;37438;55.674;13.074;2023-12-20T13:15:10;8.43;;;1.02;;
20232;SDS011;37438;55.674;13.074;2023-12-20T13:18:16;18.73;;;1.85;;
20232;SDS011;37438;55.674;13.074;2023-12-20T13:21:22;8.77;;;0.98;;
20232;SDS011;37438;55.674;13.074;2023-12-20T13:24:27;8.77;;;0.95;;
20232;SDS011;37438;55.674;13.074;2023-12-20T13:27:33;8.55;;;1.20;;
20232;SDS011;37438;55.674;13.074;2023-12-20T13:30:38;6.72;;;0.70;;
20232;SDS011;37438;55.674;13.074;2023-12-20T13:33:43;5.07;;;1.08;;
20232;SDS011;37438;55.674;13.074;2023-12-20T13:36:49;5.50;;;0.73;;
20232;SDS011;37438;55.674;13.074;2023-12-20T13:39:55;5.25;;;0.55;;
20232;SDS011;37438;55.674;13.074;2023-12-20T13:42:59;7.70;;;0.82;;
20232;SDS011;37438;55.674;13.074;2023-12-20T13:46:04;6.53;;;0.65;;
20232;SDS011;37438;55.674;13.074;2023-12-20T13:52:16;7.43;;;0.90;;
20232;SDS011;37438;55.674;13.074;2023-12-20T13:55:21;7.00;;;1.45;;
20232;SDS011;37438;55.674;13.074;2023-12-20T13:58:29;7.25;;;0.88;;
20232;SDS011;37438;55.674;13.074;2023-12-20T14:01:34;4.53;;;1.20;;
20232;SDS011;37438;55.674;13.074;2023-12-20T14:04:39;10.90;;;1.33;;
20232;SDS011;37438;55.674;13.074;2023-12-20T14:07:47;12.25;;;1.00;;
20232;SDS011;37438;55.674;13.074;2023-12-20T14:10:53;9.90;;;1.13;;
20232;SDS011;37438;55.674;13.074;2023-12-20T14:13:57;4.35;;;1.60;;
20232;SDS011;37438;55.674;13.074;2023-12-20T14:17:02;12.50;;;2.13;;
20232;SDS011;37438;55.674;13.074;2023-12-20T14:20:08;7.97;;;1.20;;
20232;SDS011;37438;55.674;13.074;2023-12-20T14:23:13;13.13;;;1.85;;
20232;SDS011;37438;55.674;13.074;2023-12-20T14:26:21;2.85;;;0.73;;
20232;SDS011;37438;55.674;13.074;2023-12-20T14:29:26;8.20;;;3.40;;
20232;SDS011;37438;55.674;13.074;2023-12-20T14:32:31;9.05;;;1.83;;
20232;SDS011;37438;55.674;13.074;2023-12-20T14:35:36;8.55;;;1.77;;
20232;SDS011;37438;55.674;13.074;2023-12-20T14:38:41;8.43;;;2.65;;
20232;SDS011;37438;55.674;13.074;2023-12-20T14:41:47;9.77;;;1.73;;
20232;SDS011;37438;55.674;13.074;2023-12-20T14:44:52;5.47;;;1.60;;
20232;SDS011;37438;55.674;13.074;2023-12-20T14:47:58;13.25;;;3.30;;
20232;SDS011;37438;55.674;13.074;2023-12-20T14:51:04;7.13;;;1.77;;
20232;SDS011;37438;55.674;13.074;2023-12-20T14:54:10;9.60;;;2.47;;
20232;SDS011;37438;55.674;13.074;2023-12-20T14:57:15;10.25;;;2.97;;
20232;SDS011;37438;55.674;13.074;2023-12-20T15:00:20;6.07;;;2.42;;
20232;SDS011;37438;55.674;13.074;2023-12-20T15:03:24;7.28;;;2.13;;
20232;SDS011;37438;55.674;13.074;2023-12-20T15:06:29;4.45;;;1.55;;
20232;SDS011;37438;55.674;13.074;2023-12-20T15:09:35;5.75;;;1.50;;
20232;SDS011;37438;55.674;13.074;2023-12-20T15:12:40;19.88;;;2.50;;
20232;SDS011;37438;55.674;13.074;2023-12-20T15:15:46;11.40;;;1.67;;
20232;SDS011;37438;55.674;13.074;2023-12-20T15:18:51;13.15;;;3.17;;
20232;SDS011;37438;55.674;13.074;2023-12-20T15:21:58;12.18;;;2.38;;
20232;SDS011;37438;55.674;13.074;2023-12-20T15:25:08;10.20;;;2.20;;
20232;SDS011;37438;55.674;13.074;2023-12-20T15:28:13;6.53;;;2.58;;
20232;SDS011;37438;55.674;13.074;2023-12-20T15:31:18;8.05;;;2.65;;
20232;SDS011;37438;55.674;13.074;2023-12-20T15:34:23;8.27;;;1.98;;
20232;SDS011;37438;55.674;13.074;2023-12-20T15:37:28;5.53;;;2.00;;
20232;SDS011;37438;55.674;13.074;2023-12-20T15:40:32;7.65;;;2.47;;
20232;SDS011;37438;55.674;13.074;2023-12-20T15:46:42;9.43;;;3.10;;
20232;SDS011;37438;55.674;13.074;2023-12-20T15:49:47;9.15;;;2.22;;
20232;SDS011;37438;55.674;13.074;2023-12-20T15:52:53;8.68;;;2.45;;
20232;SDS011;37438;55.674;13.074;2023-12-20T15:55:58;9.48;;;2.65;;
20232;SDS011;37438;55.674;13.074;2023-12-20T15:59:03;30.83;;;3.38;;
20232;SDS011;37438;55.674;13.074;2023-12-20T16:02:08;15.93;;;3.35;;
20232;SDS011;37438;55.674;13.074;2023-12-20T16:05:13;10.07;;;2.45;;
20232;SDS011;37438;55.674;13.074;2023-12-20T16:11:23;13.07;;;2.57;;
20232;SDS011;37438;55.674;13.074;2023-12-20T16:14:28;13.93;;;2.58;;
20232;SDS011;37438;55.674;13.074;2023-12-20T16:17:33;9.05;;;2.80;;
20232;SDS011;37438;55.674;13.074;2023-12-20T16:20:40;9.57;;;2.85;;
20232;SDS011;37438;55.674;13.074;2023-12-20T16:23:45;22.42;;;5.47;;
20232;SDS011;37438;55.674;13.074;2023-12-20T16:26:50;15.85;;;3.25;;
20232;SDS011;37438;55.674;13.074;2023-12-20T16:29:56;25.20;;;3.50;;
20232;SDS011;37438;55.674;13.074;2023-12-20T16:33:02;12.40;;;3.65;;
20232;SDS011;37438;55.674;13.074;2023-12-20T16:36:07;13.48;;;2.92;;
20232;SDS011;37438;55.674;13.074;2023-12-20T16:39:12;19.05;;;4.38;;
20232;SDS011;37438;55.674;13.074;2023-12-20T16:42:17;21.75;;;4.57;;
20232;SDS011;37438;55.674;13.074;2023-12-20T16:48:28;27.98;;;4.35;;
20232;SDS011;37438;55.674;13.074;2023-12-20T16:51:32;16.20;;;4.15;;
20232;SDS011;37438;55.674;13.074;2023-12-20T16:54:38;21.48;;;3.70;;
20232;SDS011;37438;55.674;13.074;2023-12-20T16:57:42;14.95;;;2.97;;
20232;SDS011;37438;55.674;13.074;2023-12-20T17:00:48;12.65;;;3.35;;
20232;SDS011;37438;55.674;13.074;2023-12-20T17:03:54;14.40;;;3.55;;
20232;SDS011;37438;55.674;13.074;2023-12-20T17:10:05;14.35;;;4.13;;
20232;SDS011;37438;55.674;13.074;2023-12-20T17:13:10;15.63;;;4.75;;
20232;SDS011;37438;55.674;13.074;2023-12-20T17:16:15;14.95;;;4.53;;
20232;SDS011;37438;55.674;13.074;2023-12-20T17:19:20;16.17;;;3.17;;
20232;SDS011;37438;55.674;13.074;2023-12-20T17:22:27;11.43;;;3.40;;
20232;SDS011;37438;55.674;13.074;2023-12-20T17:25:35;13.38;;;3.47;;
20232;SDS011;37438;55.674;13.074;2023-12-20T17:28:43;21.90;;;4.30;;
20232;SDS011;37438;55.674;13.074;2023-12-20T17:31:48;20.42;;;4.28;;
20232;SDS011;37438;55.674;13.074;2023-12-20T17:34:53;16.83;;;3.35;;
20232;SDS011;37438;55.674;13.074;2023-12-20T17:37:58;20.42;;;4.70;;
20232;SDS011;37438;55.674;13.074;2023-12-20T17:41:03;18.17;;;3.72;;
20232;SDS011;37438;55.674;13.074;2023-12-20T17:44:09;15.35;;;2.60;;
20232;SDS011;37438;55.674;13.074;2023-12-20T17:47:13;10.73;;;2.17;;
20232;SDS011;37438;55.674;13.074;2023-12-20T17:50:19;12.55;;;3.75;;
20232;SDS011;37438;55.674;13.074;2023-12-20T17:53:24;29.05;;;4.63;;
20232;SDS011;37438;55.674;13.074;2023-12-20T17:56:29;23.33;;;4.22;;
20232;SDS011;37438;55.674;13.074;2023-12-20T17:59:34;10.60;;;2.95;;
20232;SDS011;37438;55.674;13.074;2023-12-20T18:02:39;13.85;;;3.53;;
20232;SDS011;37438;55.674;13.074;2023-12-20T18:05:44;27.10;;;5.75;;
20232;SDS011;37438;55.674;13.074;2023-12-20T18:08:49;20.35;;;4.60;;
20232;SDS011;37438;55.674;13.074;2023-12-20T18:11:53;20.95;;;4.38;;
20232;SDS011;37438;55.674;13.074;2023-12-20T18:14:59;20.40;;;4.05;;
20232;SDS011;37438;55.674;13.074;2023-12-20T18:18:04;16.95;;;4.28;;
20232;SDS011;37438;55.674;13.074;2023-12-20T18:21:12;17.17;;;3.30;;
20232;SDS011;37438;55.674;13.074;2023-12-20T18:24:17;24.15;;;5.30;;
20232;SDS011;37438;55.674;13.074;2023-12-20T18:27:22;21.30;;;4.10;;
20232;SDS011;37438;55.674;13.074;2023-12-20T18:30:28;16.83;;;3.08;;
20232;SDS011;37438;55.674;13.074;2023-12-20T18:33:33;18.00;;;4.05;;
20232;SDS011;37438;55.674;13.074;2023-12-20T18:36:39;19.15;;;3.40;;
20232;SDS011;37438;55.674;13.074;2023-12-20T18:39:44;16.77;;;2.45;;
20232;SDS011;37438;55.674;13.074;2023-12-20T18:42:50;19.13;;;3.03;;
20232;SDS011;37438;55.674;13.074;2023-12-20T18:45:55;14.10;;;3.17;;
20232;SDS011;37438;55.674;13.074;2023-12-20T18:49:03;17.33;;;3.97;;
20232;SDS011;37438;55.674;13.074;2023-12-20T18:52:11;24.92;;;3.33;;
20232;SDS011;37438;55.674;13.074;2023-12-20T18:55:16;17.42;;;2.55;;
20232;SDS011;37438;55.674;13.074;2023-12-20T19:01:31;11.30;;;2.55;;
20232;SDS011;37438;55.674;13.074;2023-12-20T19:04:36;10.68;;;3.00;;
20232;SDS011;37438;55.674;13.074;2023-12-20T19:07:41;11.95;;;2.30;;
20232;SDS011;37438;55.674;13.074;2023-12-20T19:10:46;10.00;;;2.92;;
20232;SDS011;37438;55.674;13.074;2023-12-20T19:13:51;15.85;;;2.55;;
20232;SDS011;37438;55.674;13.074;2023-12-20T19:16:56;13.43;;;2.63;;
20232;SDS011;37438;55.674;13.074;2023-12-20T19:20:05;16.83;;;3.05;;
20232;SDS011;37438;55.674;13.074;2023-12-20T19:23:10;14.23;;;3.05;;
20232;SDS011;37438;55.674;13.074;2023-12-20T19:26:16;12.32;;;2.38;;
20232;SDS011;37438;55.674;13.074;2023-12-20T19:29:21;32.35;;;4.03;;
20232;SDS011;37438;55.674;13.074;2023-12-20T19:32:26;16.75;;;3.67;;
20232;SDS011;37438;55.674;13.074;2023-12-20T19:35:32;6.90;;;2.03;;
20232;SDS011;37438;55.674;13.074;2023-12-20T19:38:37;22.10;;;3.17;;
20232;SDS011;37438;55.674;13.074;2023-12-20T19:41:42;14.20;;;2.90;;